Flight Track Log - Related Links

Times and Time Zones

All times are in EDT time to prevent confusion due to time zone crossing. See the KAP927 flight status page for this flight to view local times or setup timezone preferences in your user account.

Time Position Orientation Groundspeed Altitude Reporting Facility
EDT Latitude Longitude Course Direction KTS MPH feet Rate Location/Type
Sat 02:33:51 PM 42.7803 -73.7639 42° Northeast 136 157 1,300  Level Boston Center
Sat 02:34:52 PM 42.8114 -73.7872 331° Northwest 132 152 1,900 524 Climbing Boston Center
Sat 02:35:34 PM 42.8342 -73.8047 331° Northwest 133 153 2,200 466 Climbing Boston Center
Sat 02:36:35 PM 42.8692 -73.8339 329° Northwest 132 152 2,700 493 Climbing Boston Center
Sat 02:37:48 PM 42.9042 -73.8631 329° Northwest 132 152 3,300 493 Climbing Boston Center
Sat 02:38:49 PM 42.9372 -73.8922 327° Northwest 134 154 3,800 470 Climbing Boston Center
Sat 02:39:43 PM 42.9661 -73.9156 329° Northwest 132 152 4,200 495 Climbing Boston Center
Sat 02:40:38 PM 42.9928 -73.9417 324° Northwest 132 152 4,700 533 Climbing Boston Center
Sat 02:41:13 PM 43.0094 -73.9533 333° Northwest 131 151 5,000 442 Climbing Boston Center
Sat 02:42:13 PM 43.0339 -73.9767 325° Northwest 126 145 5,400 450 Climbing Boston Center
Sat 02:43:13 PM 43.0711 -74.0089 328° Northwest 151 174 5,900 450 Climbing Boston Center
Sat 02:44:13 PM 43.1000 -74.0325 329° Northwest 151 174 6,300 450 Climbing Boston Center
Sat 02:45:13 PM 43.1350 -74.0647 326° Northwest 141 162 6,800 450 Climbing Boston Center
Sat 02:46:13 PM 43.1617 -74.0881 327° Northwest 136 157 7,200 400 Climbing Boston Center
Sat 02:47:13 PM 43.1986 -74.1206 327° Northwest 136 157 7,600 350 Climbing Boston Center
Sat 02:48:13 PM 43.2275 -74.1469 326° Northwest 142 163 7,900 200 Climbing Boston Center
Sat 02:49:13 PM 43.2667 -74.1794 329° Northwest 142 163 8,000 100 Climbing Boston Center
Sat 02:50:13 PM 43.2975 -74.2089 325° Northwest 147 169 8,100 50 Climbing Boston Center
Sat 02:51:13 PM 43.3386 -74.2472 326° Northwest 152 175 8,100  Level Boston Center
Sat 02:52:13 PM 43.3736 -74.2711 334° Northwest 152 175 8,100  Level Boston Center
Sat 02:53:13 PM 43.4044 -74.3033 323° Northwest 157 181 8,100  Level Boston Center
Sat 02:54:13 PM 43.4475 -74.3389 329° Northwest 157 181 8,100  Level Boston Center
Sat 02:55:13 PM 43.4761 -74.3656 326° Northwest 157 181 8,100  Level Boston Center
Sat 02:56:13 PM 43.5194 -74.4042 327° Northwest 152 175 8,100 -50 Level Boston Center
Sat 02:57:13 PM 43.5564 -74.4342 330° Northwest 152 175 8,000  Descending Boston Center
Sat 02:58:13 PM 43.5953 -74.4697 326° Northwest 152 175 8,100 50 Climbing Boston Center
Sat 02:59:13 PM 43.6303 -74.5025 326° Northwest 152 175 8,100 -50 Level Boston Center
Sat 03:00:13 PM 43.6669 -74.5353 327° Northwest 152 175 8,000  Descending Boston Center
Sat 03:01:13 PM 43.7019 -74.5653 328° Northwest 152 175 8,100 50 Climbing Boston Center
Sat 03:02:13 PM 43.7389 -74.5953 330° Northwest 152 175 8,100  Level Boston Center
Sat 03:03:13 PM 43.7758 -74.6283 327° Northwest 152 175 8,100 -50 Level Boston Center
Sat 03:04:13 PM 43.8106 -74.6642 323° Northwest 152 175 8,000  Descending Boston Center
Sat 03:05:13 PM 43.8475 -74.6972 327° Northwest 152 175 8,100 50 Climbing Boston Center
Sat 03:06:13 PM 43.8844 -74.7272 330° Northwest 152 175 8,100 -50 Level Boston Center
Sat 03:07:13 PM 43.9192 -74.7603 326° Northwest 152 175 8,000 -150 Descending Boston Center
Sat 03:08:13 PM 43.9581 -74.7936 328° Northwest 152 175 7,800 -350 Descending Boston Center
Sat 03:09:13 PM 44.0008 -74.8328 327° Northwest 159 183 7,300 -550 Descending Boston Center
Sat 03:10:13 PM 44.0439 -74.8692 329° Northwest 172 198 6,700 -550 Descending Boston Center
Sat 03:11:13 PM 44.0847 -74.9114 323° Northwest 178 205 6,200 -350 Descending Boston Center
Sat 03:12:13 PM 44.1278 -74.9478 329° Northwest 183 211 6,000 -100 Descending Boston Center
Sat 03:13:13 PM 44.1644 -74.9811 327° Northwest 183 211 6,000 -45 Level Boston Center
Sat 03:14:25 PM 44.2053 -75.0178 327° Northwest 178 205 5,900 -318 Descending Boston Center
Sat 03:15:25 PM 44.2522 -75.0633 325° Northwest 171 197 5,300 -600 Descending Boston Center
Sat 03:16:25 PM 44.2931 -75.1056 323° Northwest 176 203 4,700 -600 Descending Boston Center
Sat 03:17:25 PM 44.3358 -75.1483 324° Northwest 176 203 4,100 -600 Descending Boston Center
Sat 03:18:25 PM 44.3744 -75.1906 322° Northwest 176 203 3,500 -600 Descending Boston Center
Sat 03:19:25 PM 44.4150 -75.2333 323° Northwest 176 203 2,900 -550 Descending Boston Center
Sat 03:20:25 PM 44.4556 -75.2817 320° Northwest 176 203 2,400 -500 Descending Boston Center

Login

Don't have an account? Register now (free) for customized features, flight alerts, and more!